Time;durP1;ratioP1;P1;durP2;ratioP2;P2;SDS_P1;SDS_P2;PMS_P1;PMS_P2;Temp;Humidity;BMP_temperature;BMP_pressure;BME280_temperature;BME280_humidity;BME280_pressure;Samples;Min_cycle;Max_cycle;Signal;HPM_P1;HPM_P2
2021/01/28 00:00:32;;;;;;;5.40;3.72;;;15.50;64.60;;;;;;5011790;28;20045;-73
2021/01/28 00:02:59;;;;;;;5.43;3.75;;;15.50;64.60;;;;;;5012036;28;20164;-76
2021/01/28 00:05:26;;;;;;;4.13;3.17;;;15.50;64.10;;;;;;5011610;28;20018;-76
2021/01/28 00:07:52;;;;;;;4.28;3.50;;;15.50;64.20;;;;;;5042218;28;20524;-74
2021/01/28 00:10:19;;;;;;;4.63;3.45;;;15.40;64.20;;;;;;5022133;28;20021;-76
2021/01/28 00:12:46;;;;;;;5.45;4.20;;;15.40;64.30;;;;;;5031108;28;20138;-75
2021/01/28 00:15:13;;;;;;;5.20;3.53;;;15.40;64.30;;;;;;5031391;28;20398;-75
2021/01/28 00:17:38;;;;;;;4.97;3.95;;;15.40;64.40;;;;;;5030915;28;20112;-76
2021/01/28 00:20:12;;;;;;;5.63;4.05;;;15.40;64.40;;;;;;5030439;28;20120;-75
2021/01/28 00:22:37;;;;;;;5.38;3.30;;;15.30;64.40;;;;;;5031019;28;20025;-76
2021/01/28 00:25:04;;;;;;;5.18;3.92;;;15.30;64.50;;;;;;5031158;28;20371;-76
2021/01/28 00:27:29;;;;;;;5.43;4.03;;;15.30;64.60;;;;;;5031416;28;20079;-77
2021/01/28 00:29:55;;;;;;;6.40;3.78;;;15.20;64.50;;;;;;5030722;28;20037;-75
2021/01/28 00:32:20;;;;;;;6.00;4.03;;;15.20;65.30;;;;;;5031054;28;20093;-76
2021/01/28 00:34:46;;;;;;;4.78;3.35;;;15.20;64.80;;;;;;5030779;28;20029;-76
2021/01/28 00:37:11;;;;;;;5.57;4.10;;;15.20;64.70;;;;;;5042920;28;20554;-76
2021/01/28 00:39:37;;;;;;;5.28;3.92;;;15.20;64.80;;;;;;5050759;28;20488;-77
2021/01/28 00:42:03;;;;;;;4.97;3.40;;;15.20;64.90;;;;;;5050861;28;20036;-75
2021/01/28 00:44:29;;;;;;;6.22;4.13;;;15.10;64.90;;;;;;5047768;28;20022;-76
2021/01/28 00:46:54;;;;;;;5.55;3.60;;;15.10;65.00;;;;;;5030697;28;20069;-75
2021/01/28 00:49:20;;;;;;;5.30;3.75;;;15.10;65.00;;;;;;5029586;28;20032;-75
2021/01/28 00:51:45;;;;;;;5.25;4.05;;;15.10;65.10;;;;;;5030474;28;20408;-76
2021/01/28 00:54:11;;;;;;;5.40;3.92;;;15.10;65.10;;;;;;5016171;28;20029;-76
2021/01/28 00:56:37;;;;;;;5.38;4.00;;;15.00;65.20;;;;;;5010847;28;20094;-77
2021/01/28 00:59:03;;;;;;;5.03;3.60;;;15.00;65.20;;;;;;5011113;28;20099;-75
2021/01/28 01:01:28;;;;;;;4.32;3.40;;;15.00;65.20;;;;;;5011548;28;20052;-76
2021/01/28 01:03:54;;;;;;;4.95;3.67;;;15.00;65.30;;;;;;5010935;28;20022;-75
2021/01/28 01:06:20;;;;;;;4.35;3.42;;;15.00;65.40;;;;;;5021226;28;20108;-75
2021/01/28 01:08:45;;;;;;;5.50;4.05;;;15.00;65.50;;;;;;5049888;28;20565;-76
2021/01/28 01:11:12;;;;;;;4.80;3.47;;;15.00;65.50;;;;;;5050555;28;20041;-76
2021/01/28 01:13:39;;;;;;;5.18;3.63;;;14.90;65.50;;;;;;5038442;28;20102;-75
2021/01/28 01:16:07;;;;;;;4.50;3.58;;;14.90;65.50;;;;;;5030870;28;20457;-75
2021/01/28 01:18:34;;;;;;;4.85;3.63;;;14.90;66.30;;;;;;5030539;28;20029;-74
2021/01/28 01:21:01;;;;;;;4.20;3.38;;;14.90;66.30;;;;;;5033400;28;20024;-76
2021/01/28 01:23:27;;;;;;;5.20;3.42;;;14.90;65.70;;;;;;5034627;28;20022;-75
2021/01/28 01:25:53;;;;;;;5.13;3.72;;;14.90;65.70;;;;;;5033993;28;20048;-74
2021/01/28 01:28:19;;;;;;;5.75;3.55;;;14.80;65.70;;;;;;5034336;28;20107;-76
2021/01/28 01:30:45;;;;;;;4.50;3.25;;;14.80;65.80;;;;;;5033862;28;20030;-76
2021/01/28 01:33:11;;;;;;;3.72;2.85;;;14.80;65.80;;;;;;5034265;28;20025;-75
2021/01/28 01:35:36;;;;;;;4.38;2.83;;;14.80;65.80;;;;;;5033923;28;20100;-75
2021/01/28 01:38:04;;;;;;;5.00;3.53;;;14.80;66.00;;;;;;5034790;28;20074;-74
2021/01/28 01:40:56;;;;;;;4.40;3.33;;;14.80;66.00;;;;;;5034509;28;20109;-75
2021/01/28 01:43:23;;;;;;;4.28;3.25;;;14.70;66.00;;;;;;5031561;28;20068;-76
2021/01/28 01:46:05;;;;;;;4.15;2.75;;;14.70;66.80;;;;;;5032602;28;20029;-74
2021/01/28 01:48:49;;;;;;;4.32;3.22;;;14.70;66.20;;;;;;5029787;28;20064;-76
2021/01/28 01:51:28;;;;;;;3.83;2.60;;;14.70;66.30;;;;;;5013785;28;20548;-75
2021/01/28 01:54:04;;;;;;;3.30;2.50;;;14.70;66.30;;;;;;5014053;28;20026;-75
2021/01/28 01:56:30;;;;;;;4.85;2.70;;;14.60;66.40;;;;;;5014435;28;20029;-75
2021/01/28 01:59:08;;;;;;;4.32;3.13;;;14.70;66.40;;;;;;5013804;28;20026;-76
2021/01/28 02:01:48;;;;;;;3.45;2.30;;;14.60;66.40;;;;;;5013624;28;20527;-74
2021/01/28 02:04:17;;;;;;;5.05;2.53;;;14.60;66.50;;;;;;5013987;28;20021;-76
2021/01/28 02:06:48;;;;;;;3.58;2.47;;;14.60;66.50;;;;;;5033044;28;20025;-75
2021/01/28 02:09:14;;;;;;;2.65;2.28;;;14.60;66.50;;;;;;5053618;28;20655;-74
2021/01/28 02:11:41;;;;;;;3.00;2.25;;;14.60;66.60;;;;;;5033875;28;20107;-76
2021/01/28 02:14:09;;;;;;;3.45;2.58;;;14.60;66.60;;;;;;5031655;28;20029;-75
2021/01/28 02:16:39;;;;;;;2.80;2.03;;;14.60;66.60;;;;;;5033117;28;20028;-76
2021/01/28 02:19:27;;;;;;;2.83;1.95;;;14.50;66.60;;;;;;5033643;28;20156;-75
2021/01/28 02:21:53;;;;;;;3.08;2.13;;;14.50;66.70;;;;;;5033133;28;20470;-76
2021/01/28 02:24:33;;;;;;;2.85;2.17;;;14.50;66.70;;;;;;5033265;28;20032;-75
2021/01/28 02:27:01;;;;;;;4.22;2.30;;;14.50;66.70;;;;;;5033604;28;20137;-74
2021/01/28 02:29:29;;;;;;;2.28;1.75;;;14.50;66.70;;;;;;5033429;28;20120;-77
2021/01/28 02:31:55;;;;;;;2.60;1.77;;;14.50;66.80;;;;;;5032537;28;20037;-76
2021/01/28 02:34:22;;;;;;;3.42;2.08;;;14.50;66.80;;;;;;5033008;28;20033;-76
2021/01/28 02:36:51;;;;;;;3.28;1.92;;;14.50;66.90;;;;;;5043105;28;20115;-75
2021/01/28 02:39:20;;;;;;;2.75;1.67;;;14.50;66.90;;;;;;5051150;28;20021;-76
2021/01/28 02:41:53;;;;;;;3.08;2.17;;;14.50;66.90;;;;;;5052694;28;20053;-74
2021/01/28 02:44:19;;;;;;;2.42;1.70;;;14.40;67.60;;;;;;5036852;28;20461;-76
2021/01/28 02:46:45;;;;;;;2.10;1.40;;;14.40;66.90;;;;;;5011327;28;20022;-75
2021/01/28 02:49:10;;;;;;;2.95;1.70;;;14.40;67.00;;;;;;5027988;28;20037;-74
2021/01/28 02:51:36;;;;;;;2.33;1.50;;;14.40;67.00;;;;;;5032475;28;20394;-76
2021/01/28 02:54:02;;;;;;;2.15;1.67;;;14.40;67.10;;;;;;5032934;28;20022;-70
2021/01/28 02:56:28;;;;;;;2.83;1.88;;;14.40;67.10;;;;;;5032863;28;20021;-76
2021/01/28 02:58:54;;;;;;;2.15;1.60;;;14.40;67.10;;;;;;5032397;28;20469;-73
2021/01/28 03:01:20;;;;;;;2.70;1.77;;;14.40;67.10;;;;;;5032631;28;20028;-74
2021/01/28 03:03:47;;;;;;;1.83;1.20;;;14.40;67.20;;;;;;5032157;28;20026;-76
2021/01/28 03:06:13;;;;;;;2.67;1.67;;;14.40;67.20;;;;;;5036079;28;20032;-76
2021/01/28 03:08:39;;;;;;;2.08;1.40;;;14.40;67.20;;;;;;5052445;28;20029;-76
2021/01/28 03:11:05;;;;;;;2.72;1.95;;;14.30;67.20;;;;;;5051136;28;20056;-76
2021/01/28 03:13:31;;;;;;;2.75;1.55;;;14.30;67.30;;;;;;5052688;28;20107;-76
2021/01/28 03:15:58;;;;;;;2.30;1.38;;;14.30;67.30;;;;;;5052101;28;20029;-76
2021/01/28 03:18:24;;;;;;;3.65;1.50;;;14.30;67.30;;;;;;5052019;28;20027;-76
2021/01/28 03:20:51;;;;;;;2.63;1.45;;;14.30;67.40;;;;;;5051958;28;20486;-75
2021/01/28 03:23:17;;;;;;;1.35;1.02;;;14.30;67.40;;;;;;5052113;28;20416;-76
2021/01/28 03:25:43;;;;;;;2.15;1.30;;;14.30;67.40;;;;;;5051844;28;20029;-76
2021/01/28 03:28:10;;;;;;;1.75;1.30;;;14.30;67.40;;;;;;5052128;28;20028;-76
2021/01/28 03:30:42;;;;;;;1.80;1.35;;;14.30;67.40;;;;;;5050336;28;20043;-75
2021/01/28 03:33:10;;;;;;;2.00;1.30;;;14.30;67.50;;;;;;5051971;28;20036;-74
2021/01/28 03:35:36;;;;;;;2.13;1.40;;;14.30;68.20;;;;;;5048406;28;20432;-76
2021/01/28 03:38:03;;;;;;;1.80;1.15;;;14.30;67.60;;;;;;5032049;28;20030;-75
2021/01/28 03:40:30;;;;;;;1.83;1.15;;;14.20;67.50;;;;;;5020541;28;20104;-75
2021/01/28 03:42:56;;;;;;;2.08;1.25;;;14.20;67.70;;;;;;5011329;28;20037;-75
2021/01/28 03:45:23;;;;;;;1.70;1.10;;;14.20;67.60;;;;;;5012043;28;20026;-77
2021/01/28 03:47:49;;;;;;;1.90;1.27;;;14.20;67.60;;;;;;5011748;28;20018;-76
2021/01/28 03:50:18;;;;;;;2.05;1.35;;;14.20;67.70;;;;;;5011960;28;20574;-75
2021/01/28 03:52:44;;;;;;;2.00;1.10;;;14.20;67.60;;;;;;5011681;28;20041;-76
2021/01/28 03:55:10;;;;;;;2.00;1.20;;;14.20;67.70;;;;;;5011860;28;20030;-76
2021/01/28 03:57:35;;;;;;;1.83;1.52;;;14.20;67.80;;;;;;5011521;28;20017;-75
2021/01/28 04:00:04;;;;;;;0.98;0.80;;;14.20;67.80;;;;;;5012116;28;20168;-76
2021/01/28 04:02:30;;;;;;;1.35;0.82;;;14.20;67.80;;;;;;5012185;28;20021;-76
2021/01/28 04:04:55;;;;;;;3.85;1.20;;;14.20;67.90;;;;;;5011630;28;20109;-73
2021/01/28 04:07:21;;;;;;;1.45;0.90;;;14.20;67.90;;;;;;5035125;28;20485;-75
2021/01/28 04:09:46;;;;;;;1.80;1.00;;;14.20;68.00;;;;;;5050197;28;20065;-76
2021/01/28 04:12:12;;;;;;;1.70;1.15;;;14.20;68.00;;;;;;5051187;28;20029;-76
2021/01/28 04:14:37;;;;;;;1.30;1.00;;;14.20;68.70;;;;;;5051091;28;20432;-76
2021/01/28 04:17:03;;;;;;;1.60;0.95;;;14.20;68.00;;;;;;5051276;28;20053;-76
2021/01/28 04:19:29;;;;;;;1.88;0.95;;;14.20;68.00;;;;;;5050306;28;20370;-76
2021/01/28 04:21:54;;;;;;;1.38;0.90;;;14.10;67.90;;;;;;5050975;28;20025;-77
2021/01/28 04:24:20;;;;;;;1.25;0.80;;;14.10;68.00;;;;;;5051163;28;20507;-74
2021/01/28 04:26:45;;;;;;;1.20;0.80;;;14.10;68.10;;;;;;5050874;28;20075;-72
2021/01/28 04:29:11;;;;;;;1.20;0.93;;;14.10;68.00;;;;;;5051020;28;20064;-72
2021/01/28 04:31:37;;;;;;;1.40;0.80;;;14.10;68.20;;;;;;5050487;28;20044;-74
2021/01/28 04:34:03;;;;;;;1.48;0.95;;;14.10;68.20;;;;;;5050315;28;20021;-74
2021/01/28 04:36:29;;;;;;;1.50;0.70;;;14.10;68.20;;;;;;5013097;28;20064;-77
2021/01/28 04:38:55;;;;;;;1.52;1.17;;;14.10;68.20;;;;;;5011068;28;20084;-75
2021/01/28 04:41:30;;;;;;;1.02;0.80;;;14.10;68.30;;;;;;5011289;28;20030;-74
2021/01/28 04:43:58;;;;;;;1.45;0.90;;;14.10;68.40;;;;;;5010806;28;20041;-74
2021/01/28 04:46:31;;;;;;;2.03;0.95;;;14.10;68.30;;;;;;5011312;28;20034;-76
2021/01/28 04:48:58;;;;;;;1.25;0.80;;;14.10;68.40;;;;;;5011634;28;20026;-75
2021/01/28 04:51:29;;;;;;;1.05;0.70;;;14.10;68.40;;;;;;5011178;28;20025;-75
2021/01/28 04:54:09;;;;;;;1.40;0.95;;;14.00;68.30;;;;;;5010974;28;20026;-72
2021/01/28 04:56:34;;;;;;;1.30;0.85;;;14.00;68.40;;;;;;5014637;28;20057;-74
2021/01/28 04:59:08;;;;;;;0.93;0.60;;;14.00;68.50;;;;;;5015375;28;20064;-76
2021/01/28 05:01:34;;;;;;;1.08;0.60;;;14.00;68.40;;;;;;5015097;28;20080;-75
2021/01/28 05:04:04;;;;;;;1.77;0.80;;;14.00;69.30;;;;;;5015312;28;20466;-71
2021/01/28 05:06:30;;;;;;;0.90;0.70;;;14.00;68.60;;;;;;5023690;28;20086;-76
2021/01/28 05:08:56;;;;;;;1.13;0.68;;;14.00;68.70;;;;;;5054325;28;20025;-73
2021/01/28 05:11:31;;;;;;;0.90;0.60;;;14.00;68.70;;;;;;5054550;28;20485;-75
2021/01/28 05:14:26;;;;;;;0.98;0.70;;;14.00;68.70;;;;;;5055032;28;20031;-75
2021/01/28 05:16:57;;;;;;;0.98;0.60;;;14.00;68.90;;;;;;5054299;28;20815;-76
2021/01/28 05:19:44;;;;;;;0.73;0.50;;;14.00;68.90;;;;;;5054501;28;20507;-71
2021/01/28 05:22:28;;;;;;;0.70;0.55;;;14.00;68.90;;;;;;5054549;28;20157;-73
2021/01/28 05:24:58;;;;;;;1.13;0.77;;;14.00;69.00;;;;;;5054139;28;20025;-76
2021/01/28 05:27:23;;;;;;;0.93;0.50;;;14.00;69.10;;;;;;5054264;28;20029;-75
2021/01/28 05:29:50;;;;;;;1.48;0.60;;;14.00;69.10;;;;;;5050645;28;20032;-77
2021/01/28 05:32:40;;;;;;;1.77;0.68;;;14.00;69.20;;;;;;5014464;28;20474;-77
2021/01/28 05:35:31;;;;;;;0.73;0.50;;;14.00;69.10;;;;;;5051801;28;20027;-78
2021/01/28 05:38:30;;;;;;;0.60;0.40;;;14.00;69.30;;;;;;5054041;28;20029;-78
2021/01/28 05:40:58;;;;;;;1.35;0.60;;;13.90;69.20;;;;;;5053479;28;20068;-78
2021/01/28 05:43:32;;;;;;;1.20;0.60;;;14.00;69.40;;;;;;5053569;28;20405;-78
2021/01/28 05:46:23;;;;;;;0.95;0.60;;;13.90;69.30;;;;;;5035784;28;20042;-77
2021/01/28 05:49:10;;;;;;;1.70;0.60;;;13.90;69.50;;;;;;5033901;28;20032;-77
2021/01/28 05:51:39;;;;;;;1.58;0.77;;;13.90;69.50;;;;;;5033686;28;20112;-72
2021/01/28 05:54:14;;;;;;;0.73;0.50;;;13.90;69.50;;;;;;5033918;28;20026;-77
2021/01/28 05:57:05;;;;;;;0.65;0.50;;;13.90;69.60;;;;;;5033691;28;20029;-75
2021/01/28 05:59:56;;;;;;;0.75;0.35;;;13.90;69.70;;;;;;5034064;28;20025;-75
2021/01/28 06:02:42;;;;;;;0.70;0.40;;;13.90;69.70;;;;;;5046784;28;20053;-76
2021/01/28 06:05:13;;;;;;;1.08;0.40;;;13.90;69.80;;;;;;5053382;28;20029;-79
2021/01/28 06:08:03;;;;;;;1.00;0.47;;;13.90;69.90;;;;;;5053041;28;20107;-73
2021/01/28 06:10:42;;;;;;;0.50;0.50;;;13.90;70.00;;;;;;5053722;28;20025;-78
2021/01/28 06:13:45;;;;;;;1.65;0.73;;;13.90;70.00;;;;;;5053430;28;20029;-76
2021/01/28 06:16:48;;;;;;;1.58;0.63;;;13.90;70.10;;;;;;5047699;28;20033;-77
2021/01/28 06:19:38;;;;;;;0.88;0.40;;;13.90;70.20;;;;;;5053416;28;20040;-76
2021/01/28 06:22:22;;;;;;;0.63;0.50;;;13.90;70.20;;;;;;5053252;28;20029;-77
2021/01/28 06:25:17;;;;;;;0.60;0.43;;;13.90;70.30;;;;;;5053178;28;20033;-76
2021/01/28 06:28:01;;;;;;;1.05;0.57;;;13.90;70.40;;;;;;5013334;28;20062;-77
2021/01/28 06:30:46;;;;;;;1.42;0.50;;;13.90;70.40;;;;;;5023410;28;20033;-82
2021/01/28 06:33:31;;;;;;;0.70;0.50;;;13.90;70.80;;;;;;5041130;28;20045;-85
2021/01/28 06:36:08;;;;;;;1.08;0.50;;;13.90;70.60;;;;;;5036299;28;20021;-82
2021/01/28 06:39:03;;;;;;;1.75;0.40;;;13.90;70.60;;;;;;5036496;28;20061;-85
2021/01/28 06:41:37;;;;;;;1.25;0.50;;;13.90;70.60;;;;;;5033406;28;20492;-83
2021/01/28 06:44:30;;;;;;;1.83;0.57;;;14.00;71.60;;;;;;5029368;28;20037;-81
2021/01/28 06:47:05;;;;;;;1.20;0.40;;;14.10;71.20;;;;;;5025614;28;20029;-82
2021/01/28 06:50:03;;;;;;;0.70;0.50;;;14.20;71.00;;;;;;5040374;28;20037;-80
2021/01/28 06:52:45;;;;;;;0.68;0.40;;;14.30;71.60;;;;;;5032878;28;20493;-83
2021/01/28 06:55:43;;;;;;;0.82;0.38;;;14.40;70.70;;;;;;5021933;28;20409;-72
2021/01/28 06:58:20;;;;;;;0.65;0.40;;;14.60;70.60;;;;;;5015429;28;20045;-71
2021/01/28 07:01:07;;;;;;;0.68;0.30;;;14.80;70.40;;;;;;5041939;28;20374;-84
2021/01/28 07:03:54;;;;;;;0.60;0.38;;;14.90;70.20;;;;;;5050166;28;20091;-81
2021/01/28 07:06:31;;;;;;;0.60;0.38;;;15.00;70.00;;;;;;5051942;28;20025;-76
2021/01/28 07:09:02;;;;;;;0.50;0.30;;;15.20;69.70;;;;;;5031750;28;20124;-86
2021/01/28 07:11:33;;;;;;;0.65;0.40;;;15.30;69.60;;;;;;5041732;28;20124;-87
2021/01/28 07:14:04;;;;;;;0.63;0.40;;;15.40;69.20;;;;;;5035863;28;20025;-87
2021/01/28 07:16:35;;;;;;;0.65;0.35;;;15.60;69.50;;;;;;5031925;28;20108;-86
2021/01/28 07:19:06;;;;;;;0.55;0.30;;;15.70;69.20;;;;;;5042357;28;20116;-82
2021/01/28 07:21:48;;;;;;;1.65;0.38;;;15.90;69.50;;;;;;5032535;28;20033;-75
2021/01/28 07:24:27;;;;;;;2.28;0.38;;;16.10;70.20;;;;;;5030228;28;20028;-79
2021/01/28 07:26:54;;;;;;;0.68;0.20;;;16.30;69.90;;;;;;5034546;28;20037;-85
2021/01/28 07:29:51;;;;;;;3.33;2.47;;;16.50;69.50;;;;;;5049986;28;20029;-87
2021/01/28 07:32:26;;;;;;;19.30;16.15;;;16.70;70.00;;;;;;5049957;28;20037;-87
2021/01/28 07:35:25;;;;;;;17.88;13.30;;;16.90;69.90;;;;;;5032708;28;20420;-81
2021/01/28 07:37:55;;;;;;;13.00;10.57;;;17.00;70.30;;;;;;5029759;28;20040;-86
2021/01/28 07:40:57;;;;;;;10.85;9.55;;;17.20;69.60;;;;;;5032378;28;20056;-85
2021/01/28 07:43:26;;;;;;;12.07;8.80;;;17.30;69.30;;;;;;5041093;28;20040;-82
2021/01/28 07:46:27;;;;;;;10.73;8.02;;;17.40;68.60;;;;;;5031375;28;20075;-77
2021/01/28 07:49:11;;;;;;;10.05;7.72;;;17.50;69.00;;;;;;5024311;28;20044;-73
2021/01/28 07:51:43;;;;;;;10.85;7.07;;;17.60;68.40;;;;;;5049394;28;20045;-78
2021/01/28 07:54:48;;;;;;;6.97;5.65;;;17.60;68.00;;;;;;5026038;28;20049;-77
2021/01/28 07:57:28;;;;;;;7.00;5.07;;;17.60;68.20;;;;;;5012482;28;20048;-82
2021/01/28 08:00:01;;;;;;;8.45;4.40;;;17.60;68.20;;;;;;5045549;28;20389;-79
2021/01/28 08:02:32;;;;;;;6.80;4.57;;;17.60;68.10;;;;;;5032031;28;20075;-77
2021/01/28 08:05:03;;;;;;;8.02;4.10;;;17.60;67.90;;;;;;5026908;28;20037;-78
2021/01/28 08:07:42;;;;;;;5.47;4.07;;;17.50;68.20;;;;;;5030673;28;20072;-77
2021/01/28 08:10:29;;;;;;;6.78;3.88;;;17.50;68.40;;;;;;5031525;28;20032;-75
2021/01/28 08:13:26;;;;;;;6.22;3.70;;;17.40;68.30;;;;;;5041158;28;20068;-76
2021/01/28 08:16:06;;;;;;;5.57;3.78;;;17.30;68.40;;;;;;5036691;28;20507;-77
2021/01/28 08:18:36;;;;;;;4.88;3.10;;;17.30;68.40;;;;;;5041017;28;20040;-76
2021/01/28 08:21:07;;;;;;;4.78;2.97;;;17.30;68.50;;;;;;5022207;28;20033;-73
2021/01/28 08:23:34;;;;;;;4.47;2.95;;;17.20;69.30;;;;;;5038536;28;20028;-74
2021/01/28 08:26:06;;;;;;;6.28;3.00;;;17.20;68.70;;;;;;5016098;28;20022;-76
2021/01/28 08:28:35;;;;;;;6.53;3.25;;;17.10;68.90;;;;;;5023682;28;20032;-74
2021/01/28 08:31:26;;;;;;;5.22;2.60;;;17.10;68.90;;;;;;5029529;28;20033;-72
2021/01/28 08:34:01;;;;;;;4.57;2.65;;;17.10;68.80;;;;;;5026237;28;20476;-76
2021/01/28 08:36:42;;;;;;;4.47;2.97;;;17.00;68.60;;;;;;5031100;28;20030;-72
2021/01/28 08:39:19;;;;;;;3.38;2.53;;;17.00;68.60;;;;;;5037953;28;20271;-75
2021/01/28 08:41:47;;;;;;;4.78;2.50;;;17.00;68.50;;;;;;5043468;28;20064;-75
2021/01/28 08:44:16;;;;;;;4.18;2.22;;;17.00;69.10;;;;;;5034094;28;20071;-75
2021/01/28 08:46:44;;;;;;;4.72;2.30;;;16.90;68.50;;;;;;5029866;28;20100;-74
2021/01/28 08:49:19;;;;;;;4.00;2.13;;;16.90;68.40;;;;;;5028689;28;20033;-74
2021/01/28 08:51:54;;;;;;;5.72;2.03;;;16.90;68.40;;;;;;5027474;28;20042;-74
2021/01/28 08:54:32;;;;;;;3.55;2.30;;;16.90;68.60;;;;;;5040719;28;20530;-75
2021/01/28 08:56:59;;;;;;;3.17;2.15;;;16.80;69.10;;;;;;5051191;28;20049;-74
2021/01/28 08:59:39;;;;;;;3.88;1.90;;;16.80;68.60;;;;;;5036654;28;20431;-71
2021/01/28 09:02:05;;;;;;;3.20;1.85;;;16.70;68.40;;;;;;5029830;28;20116;-71
2021/01/28 09:04:38;;;;;;;4.43;1.90;;;16.70;69.30;;;;;;5029559;28;20057;-70
2021/01/28 09:07:03;;;;;;;2.63;1.67;;;16.70;68.70;;;;;;5030536;28;20034;-73
2021/01/28 09:09:34;;;;;;;4.22;1.70;;;16.70;68.80;;;;;;5045074;28;20032;-71
2021/01/28 09:12:22;;;;;;;2.20;1.50;;;16.60;68.90;;;;;;5048481;28;20257;-74
2021/01/28 09:14:48;;;;;;;3.22;1.50;;;16.50;68.90;;;;;;5050203;28;20401;-70
2021/01/28 09:17:22;;;;;;;3.05;1.10;;;16.50;69.00;;;;;;5041972;28;20021;-74
2021/01/28 09:19:57;;;;;;;2.88;1.60;;;16.50;69.20;;;;;;5042619;28;20067;-73
2021/01/28 09:22:40;;;;;;;2.30;1.63;;;16.50;70.00;;;;;;5048994;28;20056;-71
2021/01/28 09:25:22;;;;;;;2.80;1.48;;;16.40;69.30;;;;;;5033804;28;20034;-74
2021/01/28 09:28:03;;;;;;;3.33;1.35;;;16.40;69.40;;;;;;5027858;28;20462;-74
2021/01/28 09:30:37;;;;;;;1.83;1.00;;;16.40;69.40;;;;;;5039600;28;20040;-74
2021/01/28 09:33:25;;;;;;;2.08;1.50;;;16.30;69.30;;;;;;5039099;28;20048;-70
2021/01/28 09:36:17;;;;;;;1.77;1.00;;;16.30;69.30;;;;;;5045995;28;20025;-70
2021/01/28 09:39:15;;;;;;;2.75;1.20;;;16.30;70.10;;;;;;5047112;28;20033;-69
2021/01/28 09:41:45;;;;;;;1.67;1.05;;;16.20;70.20;;;;;;5045499;28;20501;-74
2021/01/28 09:44:44;;;;;;;3.55;1.35;;;16.10;70.30;;;;;;5020052;28;20065;-76
2021/01/28 09:47:17;;;;;;;2.33;0.93;;;16.10;70.60;;;;;;5014362;28;20033;-69
2021/01/28 09:49:44;;;;;;;1.90;0.95;;;16.10;70.60;;;;;;5028333;28;20025;-74
2021/01/28 09:52:32;;;;;;;3.22;1.27;;;16.00;70.70;;;;;;5032735;28;20056;-73
2021/01/28 09:55:07;;;;;;;4.38;1.02;;;16.00;70.90;;;;;;5039121;28;20025;-69
2021/01/28 09:57:33;;;;;;;3.90;1.23;;;16.00;71.10;;;;;;5053701;28;20381;-74
2021/01/28 09:59:59;;;;;;;2.95;1.00;;;16.00;71.10;;;;;;5045368;28;20038;-72
2021/01/28 10:02:48;;;;;;;3.78;1.00;;;15.90;71.10;;;;;;5037755;28;20153;-73
2021/01/28 10:05:17;;;;;;;3.05;1.08;;;15.90;71.30;;;;;;5053708;28;20432;-73
2021/01/28 10:07:43;;;;;;;1.58;0.90;;;15.80;72.20;;;;;;5039631;28;20113;-73
2021/01/28 10:10:09;;;;;;;1.17;0.77;;;15.90;71.60;;;;;;5033982;28;20112;-72
2021/01/28 10:12:35;;;;;;;3.20;1.10;;;15.80;71.40;;;;;;5031721;28;20490;-73
2021/01/28 10:15:02;;;;;;;3.17;1.42;;;15.80;72.40;;;;;;5032533;28;20033;-73
2021/01/28 10:17:28;;;;;;;1.95;0.90;;;15.70;71.50;;;;;;5032574;28;20437;-75
2021/01/28 10:19:53;;;;;;;1.90;0.85;;;15.80;71.50;;;;;;5050417;28;20033;-74
2021/01/28 10:22:20;;;;;;;3.17;1.13;;;15.70;71.80;;;;;;5040427;28;20056;-74
2021/01/28 10:24:46;;;;;;;1.60;0.82;;;15.70;71.60;;;;;;5045759;28;20037;-75
2021/01/28 10:27:12;;;;;;;2.72;1.02;;;15.70;71.50;;;;;;5053113;28;20017;-75
2021/01/28 10:29:40;;;;;;;2.22;0.98;;;15.70;71.60;;;;;;5036398;28;20030;-71
2021/01/28 10:32:08;;;;;;;2.75;0.90;;;15.60;71.70;;;;;;5031538;28;20057;-70
2021/01/28 10:34:34;;;;;;;2.05;0.77;;;15.60;71.60;;;;;;5031680;28;20017;-74
2021/01/28 10:37:00;;;;;;;3.75;0.75;;;15.60;71.80;;;;;;5026218;28;20077;-74
2021/01/28 10:39:26;;;;;;;2.95;1.10;;;15.60;71.90;;;;;;5024053;28;20021;-75
2021/01/28 10:41:51;;;;;;;1.83;0.90;;;15.60;71.90;;;;;;5032474;28;20025;-75
2021/01/28 10:44:17;;;;;;;1.85;0.80;;;15.50;71.90;;;;;;5032955;28;20029;-75
2021/01/28 10:46:44;;;;;;;2.80;0.80;;;15.50;72.10;;;;;;5044046;28;20435;-75
2021/01/28 10:49:12;;;;;;;2.25;0.70;;;15.50;72.20;;;;;;5051182;28;20021;-75
2021/01/28 10:51:38;;;;;;;3.25;1.10;;;15.40;72.80;;;;;;5047183;28;20047;-74
2021/01/28 10:54:04;;;;;;;2.03;0.73;;;15.50;72.20;;;;;;5033594;28;20476;-77
2021/01/28 10:56:30;;;;;;;1.88;0.93;;;15.50;72.20;;;;;;5040310;28;20091;-75
2021/01/28 10:58:56;;;;;;;1.50;0.65;;;15.40;72.40;;;;;;5046540;28;20033;-74
2021/01/28 11:01:21;;;;;;;2.13;0.90;;;15.40;72.30;;;;;;5040258;28;20859;-73
2021/01/28 11:03:47;;;;;;;1.48;0.55;;;15.40;72.30;;;;;;5050162;28;20017;-75
2021/01/28 11:06:13;;;;;;;2.35;0.70;;;15.40;72.40;;;;;;5052343;28;20104;-74
2021/01/28 11:08:39;;;;;;;1.83;0.65;;;15.40;73.30;;;;;;5037114;28;20021;-74
2021/01/28 11:11:06;;;;;;;1.70;0.70;;;15.40;72.50;;;;;;5032094;28;20037;-73
2021/01/28 11:13:32;;;;;;;1.73;0.70;;;15.40;72.60;;;;;;5033788;28;20028;-71
2021/01/28 11:15:58;;;;;;;3.85;0.60;;;15.40;73.00;;;;;;5052290;28;20029;-78
2021/01/28 11:18:23;;;;;;;3.63;0.60;;;15.40;73.40;;;;;;5049712;28;20032;-80
2021/01/28 11:20:49;;;;;;;2.85;1.05;;;15.40;73.70;;;;;;5035082;28;20037;-73
2021/01/28 11:23:14;;;;;;;6.63;1.20;;;15.40;74.10;;;;;;5021134;28;20030;-74
2021/01/28 11:25:40;;;;;;;3.30;1.00;;;15.40;74.20;;;;;;5022651;28;20075;-77
2021/01/28 11:28:06;;;;;;;2.15;0.70;;;15.40;74.10;;;;;;5036499;28;20436;-78
2021/01/28 11:30:34;;;;;;;1.25;0.50;;;15.50;74.00;;;;;;5051452;28;20034;-76
2021/01/28 11:33:01;;;;;;;2.45;0.77;;;15.60;74.50;;;;;;5049826;28;20032;-78
2021/01/28 11:35:31;;;;;;;2.72;0.70;;;15.70;74.70;;;;;;5050489;28;20125;-78
2021/01/28 11:37:58;;;;;;;4.85;0.98;;;15.80;74.60;;;;;;5030139;28;20028;-75
2021/01/28 11:40:25;;;;;;;11.55;2.80;;;15.90;74.80;;;;;;5030151;28;20021;-74
2021/01/28 11:42:52;;;;;;;12.60;2.88;;;16.00;74.40;;;;;;5028491;28;20076;-74
2021/01/28 11:45:20;;;;;;;9.80;1.92;;;16.10;75.50;;;;;;5022500;28;20566;-77
2021/01/28 11:47:46;;;;;;;9.93;2.15;;;16.20;74.60;;;;;;5020500;28;20053;-81
2021/01/28 11:50:12;;;;;;;15.57;2.00;;;16.30;74.40;;;;;;5030009;28;20551;-78
2021/01/28 11:52:38;;;;;;;6.45;1.30;;;16.30;74.20;;;;;;5028835;28;20383;-79
2021/01/28 11:55:10;;;;;;;5.70;1.70;;;16.40;74.30;;;;;;5028718;28;20044;-79
2021/01/28 11:57:35;;;;;;;5.15;1.20;;;16.50;74.50;;;;;;5025129;28;20041;-75
2021/01/28 12:00:01;;;;;;;9.38;1.40;;;16.60;74.70;;;;;;5021078;28;20108;-78
2021/01/28 12:02:26;;;;;;;7.20;1.50;;;16.60;74.30;;;;;;5028009;28;20394;-81
2021/01/28 12:04:52;;;;;;;3.42;1.40;;;16.70;73.80;;;;;;5020634;28;20041;-83
2021/01/28 12:07:18;;;;;;;3.72;1.05;;;16.80;74.00;;;;;;5030863;28;20408;-74
2021/01/28 12:09:44;;;;;;;6.85;1.50;;;16.90;74.20;;;;;;5043140;28;20033;-74
2021/01/28 12:12:11;;;;;;;7.38;1.33;;;16.90;73.80;;;;;;5047000;28;20041;-72
2021/01/28 12:14:36;;;;;;;3.83;0.93;;;17.10;74.10;;;;;;5031132;28;20070;-71
2021/01/28 12:17:02;;;;;;;8.27;1.55;;;17.30;73.90;;;;;;5030312;28;20112;-72
2021/01/28 12:19:28;;;;;;;4.40;1.00;;;17.50;73.30;;;;;;5029312;28;20029;-73
2021/01/28 12:21:53;;;;;;;5.32;1.38;;;17.60;73.40;;;;;;5029139;28;20037;-75
2021/01/28 12:24:19;;;;;;;6.50;1.45;;;17.60;73.10;;;;;;5030093;28;20053;-73
2021/01/28 12:26:44;;;;;;;5.93;1.42;;;17.70;73.30;;;;;;5030123;28;20037;-75
2021/01/28 12:29:10;;;;;;;4.38;1.48;;;17.80;73.40;;;;;;5025610;28;20028;-75
2021/01/28 12:31:36;;;;;;;7.07;1.55;;;17.90;73.30;;;;;;5030628;28;20045;-75
2021/01/28 12:34:01;;;;;;;5.13;1.52;;;18.00;73.60;;;;;;5030440;28;20025;-75
2021/01/28 12:36:27;;;;;;;5.78;1.30;;;18.00;73.40;;;;;;5030822;28;20502;-74
2021/01/28 12:38:53;;;;;;;3.00;1.08;;;18.10;73.10;;;;;;5029510;28;20029;-76
2021/01/28 12:41:19;;;;;;;6.22;1.27;;;18.10;73.00;;;;;;5030749;28;20091;-75
2021/01/28 12:43:44;;;;;;;5.20;1.30;;;18.20;72.50;;;;;;5042352;28;20024;-76
2021/01/28 12:46:10;;;;;;;5.03;1.33;;;18.30;72.30;;;;;;5033608;28;20041;-75
2021/01/28 12:48:36;;;;;;;10.13;1.70;;;18.30;72.70;;;;;;5037365;28;20021;-74
2021/01/28 12:51:01;;;;;;;4.95;1.17;;;18.40;72.50;;;;;;5042317;28;20128;-73
2021/01/28 12:53:27;;;;;;;4.80;1.77;;;18.40;73.00;;;;;;5029774;28;20048;-75
2021/01/28 12:55:53;;;;;;;11.82;2.20;;;18.50;73.40;;;;;;5038586;28;20064;-75
2021/01/28 12:58:18;;;;;;;8.55;1.67;;;18.60;74.80;;;;;;5038970;28;20021;-75
2021/01/28 13:00:44;;;;;;;6.95;1.75;;;18.70;75.50;;;;;;5039416;28;20029;-75
2021/01/28 13:03:09;;;;;;;8.60;2.10;;;18.80;76.00;;;;;;5048425;28;20049;-76
2021/01/28 13:05:35;;;;;;;9.40;1.50;;;18.70;75.10;;;;;;5040648;28;20035;-77
2021/01/28 13:08:00;;;;;;;22.55;3.28;;;18.60;74.40;;;;;;5029877;28;20032;-76